Time;durP1;ratioP1;P1;durP2;ratioP2;P2;SDS_P1;SDS_P2;PMS_P1;PMS_P2;Temp;Humidity;BMP_temperature;BMP_pressure;BME280_temperature;BME280_humidity;BME280_pressure;Samples;Min_cycle;Max_cycle;Signal;HPM_P1;HPM_P2
2022/08/06 00:00:26;;;;;;;0.25;0.25;;;22.30;88.20;;;;;;5131965;27;20470;-65
2022/08/06 00:02:52;;;;;;;0.30;0.30;;;22.30;88.20;;;;;;5132138;27;20049;-65
2022/08/06 00:05:17;;;;;;;0.50;0.40;;;22.30;88.20;;;;;;5132482;27;20050;-64
2022/08/06 00:07:43;;;;;;;0.32;0.32;;;22.30;88.20;;;;;;5123812;27;20050;-64
2022/08/06 00:10:09;;;;;;;0.35;0.30;;;22.30;88.30;;;;;;5132425;27;20047;-65
2022/08/06 00:12:35;;;;;;;0.32;0.32;;;22.30;88.30;;;;;;5114731;27;20396;-65
2022/08/06 00:15:04;;;;;;;0.30;0.30;;;22.30;88.30;;;;;;5132178;27;20043;-65
2022/08/06 00:17:29;;;;;;;0.20;0.20;;;22.30;88.30;;;;;;5131106;27;20511;-65
2022/08/06 00:19:55;;;;;;;0.52;0.30;;;22.30;88.40;;;;;;5132151;27;20039;-65
2022/08/06 00:22:21;;;;;;;1.48;0.35;;;22.30;88.40;;;;;;5130666;27;20638;-64
2022/08/06 00:24:47;;;;;;;0.50;0.50;;;22.30;88.40;;;;;;5132936;27;20043;-65
2022/08/06 00:27:12;;;;;;;0.52;0.52;;;22.30;88.40;;;;;;5131938;27;20062;-64
2022/08/06 00:29:38;;;;;;;0.30;0.30;;;22.30;88.50;;;;;;5125993;27;20397;-64
2022/08/06 00:32:04;;;;;;;0.38;0.38;;;22.30;88.50;;;;;;5134285;27;20046;-65
2022/08/06 00:34:30;;;;;;;0.30;0.30;;;22.30;88.50;;;;;;5152807;27;20046;-64
2022/08/06 00:36:56;;;;;;;0.40;0.40;;;22.30;88.50;;;;;;5153594;27;20054;-64
2022/08/06 00:39:21;;;;;;;0.30;0.30;;;22.30;88.50;;;;;;5152976;27;20113;-65
2022/08/06 00:41:47;;;;;;;1.02;0.40;;;22.30;88.60;;;;;;5128261;27;20048;-65
2022/08/06 00:44:13;;;;;;;0.20;0.20;;;22.30;88.60;;;;;;5093450;28;20134;-64
2022/08/06 00:46:39;;;;;;;0.40;0.40;;;22.30;88.60;;;;;;5115091;27;20472;-65
2022/08/06 00:49:05;;;;;;;1.30;0.40;;;22.30;88.60;;;;;;5127704;27;20043;-65
2022/08/06 00:51:31;;;;;;;0.30;0.30;;;22.30;88.60;;;;;;5132472;27;20062;-64
2022/08/06 00:53:57;;;;;;;0.40;0.40;;;22.30;88.70;;;;;;5113484;27;20048;-64
2022/08/06 00:56:22;;;;;;;1.85;0.50;;;22.30;88.70;;;;;;5116725;27;20043;-64
2022/08/06 00:58:48;;;;;;;0.60;0.45;;;22.30;88.70;;;;;;5114959;27;20104;-64
2022/08/06 01:01:14;;;;;;;0.30;0.30;;;22.30;88.70;;;;;;5110240;28;20040;-64
2022/08/06 01:03:39;;;;;;;0.95;0.50;;;22.30;88.70;;;;;;5125720;27;20078;-64
2022/08/06 01:06:05;;;;;;;0.30;0.30;;;22.30;88.70;;;;;;5132195;27;20043;-65
2022/08/06 01:08:31;;;;;;;0.30;0.30;;;22.30;88.80;;;;;;5127036;27;20541;-65
2022/08/06 01:10:56;;;;;;;0.50;0.50;;;22.30;88.80;;;;;;5126781;27;20737;-64
2022/08/06 01:13:22;;;;;;;0.30;0.30;;;22.30;88.80;;;;;;5131490;27;20069;-65
2022/08/06 01:15:57;;;;;;;0.30;0.30;;;22.30;88.80;;;;;;5112921;27;20050;-65
2022/08/06 01:18:28;;;;;;;0.30;0.30;;;22.30;88.90;;;;;;5130809;27;20552;-65
2022/08/06 01:21:06;;;;;;;0.45;0.30;;;22.30;88.90;;;;;;5131714;27;20046;-64
2022/08/06 01:23:48;;;;;;;0.40;0.40;;;22.30;88.90;;;;;;5124582;27;20107;-64
2022/08/06 01:26:35;;;;;;;0.68;0.40;;;22.30;88.90;;;;;;5101017;27;20397;-64
2022/08/06 01:29:09;;;;;;;0.40;0.40;;;22.30;88.90;;;;;;5113386;27;20120;-65
2022/08/06 01:31:47;;;;;;;0.30;0.28;;;22.30;89.00;;;;;;5130571;27;20039;-65
2022/08/06 01:34:33;;;;;;;0.52;0.43;;;22.30;89.00;;;;;;5130282;27;20050;-65
2022/08/06 01:37:25;;;;;;;0.32;0.32;;;22.20;88.90;;;;;;5131276;27;20062;-65
2022/08/06 01:39:56;;;;;;;0.30;0.30;;;22.20;88.90;;;;;;5131817;27;20061;-64
2022/08/06 01:42:25;;;;;;;0.65;0.43;;;22.20;89.00;;;;;;5131148;27;20094;-64
2022/08/06 01:44:54;;;;;;;0.30;0.30;;;22.20;88.90;;;;;;5131665;28;20472;-65
2022/08/06 01:47:21;;;;;;;0.20;0.20;;;22.20;89.00;;;;;;5118047;28;20058;-64
2022/08/06 01:49:54;;;;;;;0.35;0.35;;;22.20;89.00;;;;;;5109769;28;20047;-64
2022/08/06 01:52:21;;;;;;;1.63;0.40;;;22.20;89.00;;;;;;5110156;28;20108;-64
2022/08/06 01:54:50;;;;;;;0.20;0.20;;;22.20;89.00;;;;;;5111343;28;20439;-64
2022/08/06 01:57:20;;;;;;;0.40;0.40;;;22.20;89.00;;;;;;5110394;28;20047;-64
2022/08/06 01:59:53;;;;;;;1.45;0.40;;;22.20;89.10;;;;;;5121521;28;20047;-65
2022/08/06 02:02:22;;;;;;;0.88;0.35;;;22.20;89.10;;;;;;5130131;28;20122;-65
2022/08/06 02:04:52;;;;;;;0.50;0.50;;;22.20;89.10;;;;;;5130219;28;20048;-65
2022/08/06 02:07:24;;;;;;;0.38;0.30;;;22.20;89.10;;;;;;5131142;28;20039;-64
2022/08/06 02:09:51;;;;;;;0.45;0.45;;;22.20;89.20;;;;;;5124153;28;20079;-64
2022/08/06 02:12:20;;;;;;;0.30;0.30;;;22.20;89.10;;;;;;5129260;28;20043;-64
2022/08/06 02:14:59;;;;;;;0.70;0.35;;;22.20;89.20;;;;;;5131265;28;20043;-64
2022/08/06 02:17:39;;;;;;;0.25;0.25;;;22.20;89.20;;;;;;5111664;28;20051;-64
2022/08/06 02:20:08;;;;;;;0.40;0.40;;;22.20;89.20;;;;;;5130598;28;20083;-65
2022/08/06 02:22:36;;;;;;;0.40;0.40;;;22.20;89.20;;;;;;5130706;28;20373;-64
2022/08/06 02:25:08;;;;;;;0.20;0.20;;;22.20;89.30;;;;;;5131223;28;20555;-64
2022/08/06 02:27:35;;;;;;;0.20;0.20;;;22.20;89.30;;;;;;5130440;28;20328;-65
2022/08/06 02:30:01;;;;;;;0.38;0.38;;;22.20;89.30;;;;;;5125983;28;20047;-64
2022/08/06 02:32:27;;;;;;;0.73;0.40;;;22.20;89.30;;;;;;5114275;27;20095;-64
2022/08/06 02:34:54;;;;;;;0.30;0.30;;;22.20;89.30;;;;;;5113393;27;20058;-64
2022/08/06 02:37:30;;;;;;;0.80;0.40;;;22.20;89.40;;;;;;5116653;27;20082;-64
2022/08/06 02:40:11;;;;;;;0.32;0.32;;;22.20;89.40;;;;;;5135233;27;20154;-64
2022/08/06 02:42:44;;;;;;;0.40;0.40;;;22.20;89.40;;;;;;5134685;27;20079;-64
2022/08/06 02:45:25;;;;;;;0.40;0.30;;;22.20;89.40;;;;;;5134468;27;20084;-64
2022/08/06 02:48:07;;;;;;;0.40;0.40;;;22.20;89.40;;;;;;5114126;28;20074;-64
2022/08/06 02:50:35;;;;;;;0.30;0.30;;;22.20;89.50;;;;;;5113977;28;20073;-65
2022/08/06 02:53:15;;;;;;;0.28;0.28;;;22.20;89.40;;;;;;5114451;28;20048;-64
2022/08/06 02:55:46;;;;;;;0.82;0.22;;;22.20;89.40;;;;;;5127358;27;20520;-64
2022/08/06 02:58:37;;;;;;;0.30;0.30;;;22.20;89.50;;;;;;5134711;27;20062;-64
2022/08/06 03:01:07;;;;;;;0.30;0.30;;;22.20;89.50;;;;;;5133700;27;20046;-64
2022/08/06 03:03:34;;;;;;;0.55;0.45;;;22.20;89.50;;;;;;5133645;27;20146;-64
2022/08/06 03:06:03;;;;;;;0.40;0.30;;;22.20;89.50;;;;;;5134649;27;20085;-64
2022/08/06 03:08:30;;;;;;;0.50;0.30;;;22.20;90.00;;;;;;5134165;27;20045;-64
2022/08/06 03:10:57;;;;;;;0.35;0.32;;;22.20;89.50;;;;;;5126993;27;20044;-64
2022/08/06 03:13:24;;;;;;;0.40;0.40;;;22.20;89.50;;;;;;5113193;28;20056;-64
2022/08/06 03:15:51;;;;;;;0.20;0.20;;;22.10;89.50;;;;;;5112724;28;20085;-64
2022/08/06 03:18:18;;;;;;;0.40;0.40;;;22.20;89.60;;;;;;5125255;27;20051;-64
2022/08/06 03:20:44;;;;;;;0.30;0.30;;;22.20;89.60;;;;;;5111284;28;20048;-64
2022/08/06 03:23:12;;;;;;;0.77;0.30;;;22.10;89.60;;;;;;5124095;27;20051;-64
2022/08/06 03:25:39;;;;;;;0.55;0.43;;;22.20;89.70;;;;;;5133390;27;20043;-64
2022/08/06 03:28:06;;;;;;;0.30;0.30;;;22.10;89.60;;;;;;5133709;27;20169;-64
2022/08/06 03:30:32;;;;;;;0.63;0.50;;;22.10;89.60;;;;;;5132788;27;20051;-64
2022/08/06 03:33:06;;;;;;;0.73;0.30;;;22.10;89.70;;;;;;5132927;27;20050;-64
2022/08/06 03:35:34;;;;;;;0.47;0.40;;;22.10;89.70;;;;;;5133488;27;20138;-64
2022/08/06 03:38:01;;;;;;;0.20;0.20;;;22.10;90.10;;;;;;5134058;27;20039;-64
2022/08/06 03:40:29;;;;;;;0.30;0.30;;;22.10;89.70;;;;;;5133035;27;20054;-64
2022/08/06 03:42:55;;;;;;;0.30;0.30;;;22.10;89.70;;;;;;5133263;27;20054;-64
2022/08/06 03:45:21;;;;;;;0.55;0.40;;;22.10;89.70;;;;;;5132195;27;20043;-64
2022/08/06 03:47:53;;;;;;;0.40;0.40;;;22.10;89.80;;;;;;5133338;27;20035;-64
2022/08/06 03:50:26;;;;;;;0.50;0.50;;;22.10;89.80;;;;;;5133420;27;20127;-64
2022/08/06 03:52:57;;;;;;;0.57;0.40;;;22.10;89.80;;;;;;5117230;27;20047;-64
2022/08/06 03:55:27;;;;;;;0.40;0.40;;;22.10;89.90;;;;;;5112287;28;20168;-64
2022/08/06 03:57:57;;;;;;;0.38;0.30;;;22.10;90.20;;;;;;5112939;28;20476;-64
2022/08/06 04:00:25;;;;;;;0.35;0.35;;;22.10;89.80;;;;;;5111334;28;20563;-64
2022/08/06 04:02:53;;;;;;;0.57;0.50;;;22.10;89.90;;;;;;5124193;27;20108;-64
2022/08/06 04:05:21;;;;;;;0.30;0.30;;;22.10;89.90;;;;;;5126338;27;20051;-64
2022/08/06 04:07:50;;;;;;;0.60;0.30;;;22.10;89.90;;;;;;5133301;27;20126;-64
2022/08/06 04:10:17;;;;;;;0.40;0.40;;;22.10;89.90;;;;;;5133284;27;20096;-64
2022/08/06 04:12:45;;;;;;;0.30;0.30;;;22.10;90.00;;;;;;5132620;27;20046;-64
2022/08/06 04:15:12;;;;;;;0.50;0.50;;;22.10;90.00;;;;;;5132318;27;20051;-64
2022/08/06 04:17:41;;;;;;;0.30;0.30;;;22.10;90.00;;;;;;5132393;27;20075;-64
2022/08/06 04:20:13;;;;;;;0.30;0.30;;;22.10;90.30;;;;;;5132305;27;20495;-64
2022/08/06 04:22:39;;;;;;;0.38;0.38;;;22.10;90.00;;;;;;5132798;27;20092;-64
2022/08/06 04:25:05;;;;;;;0.20;0.20;;;22.10;90.00;;;;;;5125513;27;20086;-64
2022/08/06 04:27:32;;;;;;;0.32;0.32;;;22.10;90.00;;;;;;5132447;27;20075;-64
2022/08/06 04:29:59;;;;;;;0.90;0.43;;;22.10;90.00;;;;;;5132822;27;20130;-64
2022/08/06 04:32:27;;;;;;;0.40;0.30;;;22.10;90.00;;;;;;5131535;27;20051;-64
2022/08/06 04:34:55;;;;;;;0.30;0.30;;;22.10;90.00;;;;;;5132016;27;20066;-64
2022/08/06 04:37:21;;;;;;;0.30;0.30;;;22.10;90.00;;;;;;5132871;27;20039;-63
2022/08/06 04:39:47;;;;;;;0.20;0.20;;;22.10;90.00;;;;;;5132256;27;20303;-64
2022/08/06 04:42:13;;;;;;;0.30;0.30;;;22.10;90.00;;;;;;5132580;27;20438;-64
2022/08/06 04:44:39;;;;;;;0.47;0.47;;;22.10;90.00;;;;;;5132051;27;20044;-64
2022/08/06 04:47:06;;;;;;;0.32;0.32;;;22.10;90.10;;;;;;5130770;27;20404;-64
2022/08/06 04:49:31;;;;;;;0.40;0.40;;;22.10;90.10;;;;;;5113175;27;20133;-64
2022/08/06 04:51:57;;;;;;;0.30;0.30;;;22.10;90.10;;;;;;5120146;27;20126;-64
2022/08/06 04:54:23;;;;;;;0.30;0.30;;;22.10;90.10;;;;;;5111473;28;20100;-64
2022/08/06 04:56:49;;;;;;;0.32;0.32;;;22.10;90.10;;;;;;5122739;27;20216;-64
2022/08/06 04:59:14;;;;;;;2.20;0.57;;;22.10;90.10;;;;;;5111488;28;20047;-64
2022/08/06 05:01:40;;;;;;;0.30;0.30;;;22.10;90.10;;;;;;5110365;28;20046;-64
2022/08/06 05:04:05;;;;;;;0.85;0.40;;;22.10;90.10;;;;;;5092810;28;20445;-64
2022/08/06 05:07:18;;;;;;;0.30;0.30;;;22.10;90.10;;;;;;5123001;27;20082;-64
2022/08/06 05:09:44;;;;;;;0.20;0.20;;;22.10;90.10;;;;;;5079738;27;20055;-64
2022/08/06 05:12:32;;;;;;;0.22;0.22;;;22.10;90.10;;;;;;5111460;28;20079;-64
2022/08/06 05:15:04;;;;;;;0.20;0.20;;;22.10;90.10;;;;;;5111444;28;20050;-64
2022/08/06 05:17:33;;;;;;;0.20;0.20;;;22.10;90.10;;;;;;5116067;27;20095;-64
2022/08/06 05:20:18;;;;;;;0.25;0.20;;;22.10;90.10;;;;;;5131199;27;20043;-64
2022/08/06 05:22:47;;;;;;;0.40;0.40;;;22.10;90.10;;;;;;5131727;27;20120;-64
2022/08/06 05:25:13;;;;;;;0.20;0.20;;;22.10;90.10;;;;;;5131250;27;20035;-64
2022/08/06 05:27:40;;;;;;;0.30;0.30;;;22.10;90.10;;;;;;5129931;27;20107;-64
2022/08/06 05:30:07;;;;;;;0.40;0.40;;;22.10;90.10;;;;;;5112777;27;20494;-64
2022/08/06 05:32:41;;;;;;;0.30;0.30;;;22.10;90.10;;;;;;5116464;27;20373;-64
2022/08/06 05:35:07;;;;;;;0.22;0.22;;;22.10;90.10;;;;;;5130936;27;20084;-65
2022/08/06 05:37:33;;;;;;;0.30;0.30;;;22.10;90.10;;;;;;5131688;27;20043;-64
2022/08/06 05:39:58;;;;;;;0.22;0.22;;;22.10;90.10;;;;;;5131618;27;20046;-64
2022/08/06 05:42:24;;;;;;;0.25;0.25;;;22.10;90.10;;;;;;5123768;27;20507;-64
2022/08/06 05:44:50;;;;;;;0.50;0.50;;;22.10;90.20;;;;;;5092677;28;20055;-65
2022/08/06 05:47:20;;;;;;;0.30;0.30;;;22.10;90.10;;;;;;5120689;27;20102;-64
2022/08/06 05:49:50;;;;;;;0.30;0.30;;;22.10;90.10;;;;;;5130217;28;20043;-64
2022/08/06 05:52:22;;;;;;;0.75;0.30;;;22.10;90.10;;;;;;5131800;28;20039;-64
2022/08/06 05:55:02;;;;;;;0.52;0.40;;;22.10;90.10;;;;;;5131090;28;20065;-64
2022/08/06 05:57:31;;;;;;;0.90;0.38;;;22.10;90.20;;;;;;5111069;28;20048;-64
2022/08/06 06:00:02;;;;;;;0.30;0.30;;;22.10;90.20;;;;;;5110585;28;20039;-64
2022/08/06 06:02:29;;;;;;;0.30;0.30;;;22.10;90.20;;;;;;5111864;28;20051;-64
2022/08/06 06:04:55;;;;;;;0.32;0.32;;;22.10;90.20;;;;;;5129800;28;20051;-64
2022/08/06 06:07:21;;;;;;;0.30;0.30;;;22.10;90.10;;;;;;5115595;27;20126;-64
2022/08/06 06:09:48;;;;;;;0.55;0.50;;;22.10;90.20;;;;;;5135063;27;20047;-64
2022/08/06 06:12:14;;;;;;;0.20;0.20;;;22.10;90.20;;;;;;5128976;27;20047;-65
2022/08/06 06:14:42;;;;;;;0.30;0.30;;;22.20;90.20;;;;;;5134459;27;20503;-64
2022/08/06 06:17:34;;;;;;;0.30;0.30;;;22.20;90.20;;;;;;5134027;27;20047;-65
2022/08/06 06:20:21;;;;;;;1.10;0.43;;;22.20;90.20;;;;;;5125911;27;20174;-65
2022/08/06 06:22:52;;;;;;;0.25;0.25;;;22.20;90.20;;;;;;5118762;27;20496;-64
2022/08/06 06:25:32;;;;;;;0.45;0.35;;;22.20;90.20;;;;;;5114801;28;20046;-64
2022/08/06 06:28:29;;;;;;;0.30;0.30;;;22.20;90.20;;;;;;5124277;27;20046;-64
2022/08/06 06:31:22;;;;;;;0.32;0.32;;;22.20;90.20;;;;;;5129912;27;20140;-64
2022/08/06 06:34:11;;;;;;;0.30;0.30;;;22.20;90.20;;;;;;5133496;27;20059;-64
2022/08/06 06:36:52;;;;;;;0.43;0.30;;;22.20;90.20;;;;;;5116867;27;20043;-64
2022/08/06 06:39:27;;;;;;;0.28;0.28;;;22.20;90.20;;;;;;5116299;27;20043;-65
2022/08/06 06:41:58;;;;;;;0.40;0.40;;;22.20;90.20;;;;;;5116263;27;20107;-64
2022/08/06 06:44:50;;;;;;;0.40;0.40;;;22.20;90.20;;;;;;5135124;27;20280;-64
2022/08/06 06:47:23;;;;;;;0.65;0.30;;;22.20;90.20;;;;;;5118617;27;20050;-64
2022/08/06 06:49:58;;;;;;;0.30;0.30;;;22.20;90.20;;;;;;5133826;27;20047;-64
2022/08/06 06:52:39;;;;;;;0.20;0.20;;;22.20;90.20;;;;;;5116896;27;20054;-64
2022/08/06 06:55:11;;;;;;;0.45;0.40;;;22.20;90.20;;;;;;5121990;27;20536;-65
2022/08/06 06:57:43;;;;;;;0.30;0.30;;;22.20;90.20;;;;;;5134793;27;20047;-64
2022/08/06 07:00:10;;;;;;;0.30;0.30;;;22.30;90.20;;;;;;5134143;27;20065;-65
2022/08/06 07:02:40;;;;;;;0.20;0.20;;;22.30;90.20;;;;;;5134298;27;20058;-65
2022/08/06 07:05:07;;;;;;;0.20;0.20;;;22.30;90.20;;;;;;5116531;27;20192;-64
2022/08/06 07:07:36;;;;;;;0.30;0.30;;;22.30;90.20;;;;;;5114127;27;20047;-64
2022/08/06 07:10:05;;;;;;;0.43;0.43;;;22.30;90.10;;;;;;5113512;28;20091;-64
2022/08/06 07:12:32;;;;;;;0.45;0.45;;;22.30;90.10;;;;;;5113846;28;20058;-64
2022/08/06 07:15:00;;;;;;;1.35;0.30;;;22.30;90.10;;;;;;5132140;27;20039;-64
2022/08/06 07:17:28;;;;;;;0.80;0.35;;;22.30;90.10;;;;;;5119232;27;20047;-64
2022/08/06 07:19:57;;;;;;;0.73;0.73;;;22.30;90.10;;;;;;5132587;27;20066;-64
2022/08/06 07:22:25;;;;;;;0.40;0.30;;;22.30;90.10;;;;;;5117025;27;20408;-64
2022/08/06 07:25:02;;;;;;;0.63;0.50;;;22.30;90.10;;;;;;5122384;27;20054;-64
2022/08/06 07:27:32;;;;;;;1.10;0.40;;;22.30;90.10;;;;;;5126288;27;20122;-64
2022/08/06 07:29:59;;;;;;;1.65;0.30;;;22.30;90.10;;;;;;5133445;27;20484;-64
2022/08/06 07:32:25;;;;;;;0.65;0.38;;;22.30;90.10;;;;;;5133110;27;20039;-64
2022/08/06 07:34:52;;;;;;;0.65;0.28;;;22.30;90.10;;;;;;5122168;27;20061;-64
2022/08/06 07:37:21;;;;;;;0.20;0.20;;;22.30;90.10;;;;;;5115247;27;20047;-64
2022/08/06 07:39:49;;;;;;;0.30;0.30;;;22.30;90.10;;;;;;5133633;27;20039;-64
2022/08/06 07:42:16;;;;;;;0.40;0.40;;;22.30;90.10;;;;;;5115555;27;20046;-64
2022/08/06 07:44:47;;;;;;;1.00;0.35;;;22.30;90.30;;;;;;5127896;27;20154;-64
2022/08/06 07:47:19;;;;;;;0.30;0.30;;;22.30;90.00;;;;;;5095456;27;20087;-64
2022/08/06 07:49:48;;;;;;;0.40;0.40;;;22.30;90.00;;;;;;5114925;27;20055;-64
2022/08/06 07:52:15;;;;;;;0.30;0.30;;;22.30;90.00;;;;;;5133509;27;20043;-64
2022/08/06 07:54:42;;;;;;;0.30;0.30;;;22.30;90.00;;;;;;5118799;27;20083;-64
2022/08/06 07:57:10;;;;;;;0.30;0.30;;;22.30;90.00;;;;;;5112388;28;20585;-64
2022/08/06 07:59:36;;;;;;;0.30;0.30;;;22.30;90.00;;;;;;5113011;28;20048;-64
2022/08/06 08:02:04;;;;;;;0.40;0.30;;;22.30;90.00;;;;;;5111422;28;20529;-64
2022/08/06 08:07:15;;;;;;;0.25;0.25;;;22.30;90.00;;;;;;5131157;27;20058;-64
2022/08/06 08:09:45;;;;;;;0.55;0.52;;;22.30;90.00;;;;;;5128608;27;20052;-64
2022/08/06 08:12:13;;;;;;;0.30;0.30;;;22.30;90.00;;;;;;5112050;28;20089;-64
2022/08/06 08:14:42;;;;;;;0.50;0.45;;;22.40;90.00;;;;;;5132305;27;20028;-64
2022/08/06 08:17:08;;;;;;;0.28;0.28;;;22.30;90.00;;;;;;5131459;27;20385;-64
2022/08/06 08:19:34;;;;;;;0.45;0.38;;;22.40;90.00;;;;;;5132450;27;20047;-64
2022/08/06 08:22:05;;;;;;;0.30;0.28;;;22.40;90.00;;;;;;5132190;27;20050;-64
2022/08/06 08:24:33;;;;;;;0.22;0.20;;;22.40;90.00;;;;;;5112798;28;20046;-64
2022/08/06 08:26:59;;;;;;;0.30;0.30;;;22.40;90.00;;;;;;5111783;28;20725;-65
2022/08/06 08:29:26;;;;;;;0.40;0.40;;;22.40;90.00;;;;;;5117799;27;20084;-64
2022/08/06 08:31:53;;;;;;;0.45;0.40;;;22.40;90.00;;;;;;5113926;27;20057;-64
2022/08/06 08:34:18;;;;;;;0.30;0.30;;;22.40;90.00;;;;;;5119472;27;20083;-64
2022/08/06 08:36:44;;;;;;;0.68;0.35;;;22.30;89.80;;;;;;5106455;27;20075;-64
2022/08/06 08:39:10;;;;;;;0.40;0.40;;;22.40;89.90;;;;;;5124520;27;20039;-64
2022/08/06 08:42:15;;;;;;;0.63;0.50;;;22.40;89.90;;;;;;5125454;27;20047;-64
2022/08/06 08:44:42;;;;;;;0.32;0.32;;;22.40;89.70;;;;;;5125559;27;20036;-64
2022/08/06 08:47:09;;;;;;;0.35;0.35;;;22.40;89.80;;;;;;5124357;27;20051;-64
2022/08/06 08:49:39;;;;;;;0.30;0.30;;;22.40;89.80;;;;;;5116593;27;20044;-65
2022/08/06 08:52:08;;;;;;;0.30;0.30;;;22.40;89.80;;;;;;5119312;27;20403;-64
2022/08/06 08:54:36;;;;;;;0.60;0.40;;;22.40;89.70;;;;;;5118811;27;20055;-64
2022/08/06 08:57:05;;;;;;;0.30;0.30;;;22.40;89.50;;;;;;5123371;27;20048;-64
2022/08/06 08:59:32;;;;;;;0.30;0.30;;;22.30;89.00;;;;;;5120102;27;20128;-64
2022/08/06 09:01:58;;;;;;;0.85;0.40;;;22.30;88.70;;;;;;5119958;27;20104;-64
2022/08/06 09:04:26;;;;;;;0.35;0.35;;;22.30;88.60;;;;;;5116129;27;20046;-64
2022/08/06 09:06:52;;;;;;;0.30;0.30;;;22.30;88.60;;;;;;5116154;27;20052;-64
2022/08/06 09:09:18;;;;;;;0.20;0.20;;;22.30;88.50;;;;;;5097451;27;20031;-64
2022/08/06 09:11:44;;;;;;;0.30;0.30;;;22.30;88.50;;;;;;5116287;27;20475;-64
2022/08/06 09:14:10;;;;;;;0.65;0.40;;;22.30;88.50;;;;;;5115065;27;20048;-64
2022/08/06 09:16:36;;;;;;;0.30;0.30;;;22.30;88.50;;;;;;5115399;27;20121;-64
2022/08/06 09:19:04;;;;;;;0.35;0.35;;;22.30;88.50;;;;;;5115971;27;20043;-64
2022/08/06 09:21:30;;;;;;;0.63;0.47;;;22.30;88.40;;;;;;5120455;27;20050;-64
2022/08/06 09:23:56;;;;;;;0.68;0.40;;;22.30;88.40;;;;;;5118681;27;20055;-64
2022/08/06 09:26:22;;;;;;;0.60;0.32;;;22.30;88.40;;;;;;5112404;27;20051;-64
2022/08/06 09:28:49;;;;;;;2.33;0.60;;;22.30;88.40;;;;;;5129002;27;20035;-64
2022/08/06 09:31:19;;;;;;;0.30;0.30;;;22.30;88.00;;;;;;5129359;27;20495;-65
2022/08/06 09:34:01;;;;;;;0.45;0.32;;;22.30;87.60;;;;;;5124451;27;20078;-65
2022/08/06 09:36:27;;;;;;;1.10;0.50;;;22.30;87.40;;;;;;5116989;27;20047;-64
2022/08/06 09:38:56;;;;;;;1.95;0.50;;;22.20;87.40;;;;;;5131837;27;20039;-65
2022/08/06 09:41:23;;;;;;;0.52;0.50;;;22.20;87.30;;;;;;5130655;27;20054;-65
2022/08/06 09:43:51;;;;;;;1.45;0.35;;;22.20;87.30;;;;;;5131690;27;20047;-64
2022/08/06 09:46:35;;;;;;;0.40;0.30;;;22.20;87.20;;;;;;5130045;27;20118;-65
2022/08/06 09:49:02;;;;;;;2.17;0.40;;;22.20;87.20;;;;;;5130705;28;20072;-64
2022/08/06 09:51:29;;;;;;;0.65;0.40;;;22.20;87.20;;;;;;5127763;28;20046;-64
2022/08/06 09:53:57;;;;;;;0.73;0.50;;;22.20;87.10;;;;;;5116839;28;20114;-65
2022/08/06 09:56:23;;;;;;;1.70;0.60;;;22.20;87.00;;;;;;5126424;28;20051;-65
2022/08/06 09:58:50;;;;;;;4.47;0.70;;;22.20;86.90;;;;;;5131573;28;20043;-67
2022/08/06 10:01:18;;;;;;;1.02;0.60;;;22.30;86.80;;;;;;5124819;28;20054;-65
2022/08/06 10:03:44;;;;;;;0.60;0.50;;;22.30;86.80;;;;;;5113461;28;20043;-66
2022/08/06 10:06:12;;;;;;;2.65;0.90;;;22.30;86.70;;;;;;5125910;28;20037;-65
2022/08/06 10:08:39;;;;;;;1.17;0.57;;;22.30;86.70;;;;;;5104177;28;20099;-65
2022/08/06 10:11:06;;;;;;;1.15;0.70;;;22.30;86.70;;;;;;5118045;28;20054;-65
2022/08/06 10:13:33;;;;;;;1.65;0.50;;;22.30;86.60;;;;;;5125812;28;20077;-65
2022/08/06 10:16:01;;;;;;;1.15;0.50;;;22.40;86.70;;;;;;5101536;28;20051;-65
2022/08/06 10:18:41;;;;;;;1.63;0.50;;;22.40;86.60;;;;;;5123108;28;20043;-65
2022/08/06 10:21:17;;;;;;;0.80;0.50;;;22.40;86.60;;;;;;5119952;28;20113;-65
2022/08/06 10:23:46;;;;;;;1.15;0.50;;;22.40;86.50;;;;;;5119917;28;20062;-65
2022/08/06 10:26:18;;;;;;;1.08;0.50;;;22.40;86.50;;;;;;5121000;28;20516;-65
2022/08/06 10:28:45;;;;;;;1.60;0.40;;;22.40;86.40;;;;;;5121092;28;20388;-65
2022/08/06 10:31:14;;;;;;;4.60;1.50;;;22.50;86.40;;;;;;5124378;28;20035;-65
2022/08/06 10:33:47;;;;;;;0.50;0.50;;;22.50;86.40;;;;;;5121057;28;20058;-65
2022/08/06 10:36:19;;;;;;;0.73;0.60;;;22.50;86.40;;;;;;5125808;28;20059;-65
2022/08/06 10:38:47;;;;;;;2.05;0.60;;;22.50;86.40;;;;;;5128144;28;20043;-65
2022/08/06 10:41:13;;;;;;;2.05;0.60;;;22.50;86.40;;;;;;5101433;28;20051;-65
2022/08/06 10:43:40;;;;;;;1.65;0.40;;;22.50;86.40;;;;;;5120846;28;20100;-65
2022/08/06 10:46:15;;;;;;;1.88;0.40;;;22.50;86.30;;;;;;5119540;28;20085;-65
2022/08/06 10:48:46;;;;;;;2.42;0.90;;;22.50;86.30;;;;;;5119978;28;20047;-65
2022/08/06 10:51:13;;;;;;;1.27;0.40;;;22.50;86.30;;;;;;5102962;28;20119;-64
2022/08/06 10:53:42;;;;;;;0.47;0.45;;;22.60;86.30;;;;;;5125040;27;20492;-65
2022/08/06 10:56:09;;;;;;;0.85;0.60;;;22.60;86.90;;;;;;5138171;27;20038;-65
2022/08/06 10:58:37;;;;;;;0.70;0.57;;;22.60;86.30;;;;;;5142851;27;20039;-65
2022/08/06 11:01:07;;;;;;;0.55;0.50;;;22.60;86.30;;;;;;5149607;27;20106;-65
2022/08/06 11:03:35;;;;;;;2.53;0.60;;;22.60;86.30;;;;;;5147515;27;20201;-65
2022/08/06 11:06:32;;;;;;;2.10;0.60;;;22.60;86.30;;;;;;5143044;27;20540;-65
2022/08/06 11:09:09;;;;;;;2.08;0.57;;;22.60;86.30;;;;;;5150332;27;20534;-65
2022/08/06 11:11:52;;;;;;;0.80;0.45;;;22.60;86.30;;;;;;5152267;27;20070;-65
2022/08/06 11:14:19;;;;;;;0.45;0.30;;;22.60;86.30;;;;;;5146691;27;20043;-65
2022/08/06 11:16:58;;;;;;;1.65;0.40;;;22.60;86.30;;;;;;5150912;27;20050;-65
2022/08/06 11:19:44;;;;;;;0.75;0.38;;;22.60;86.30;;;;;;5138878;27;20043;-65
2022/08/06 11:22:34;;;;;;;0.50;0.50;;;22.60;86.30;;;;;;5153705;27;20085;-65
2022/08/06 11:25:00;;;;;;;0.40;0.40;;;22.60;86.30;;;;;;5153227;27;20495;-65
2022/08/06 11:27:51;;;;;;;0.55;0.40;;;22.60;86.30;;;;;;5137371;27;20035;-65
2022/08/06 11:30:18;;;;;;;0.32;0.32;;;22.60;86.30;;;;;;5132609;27;20047;-65
2022/08/06 11:32:47;;;;;;;0.40;0.40;;;22.60;86.30;;;;;;5138947;27;20403;-64
2022/08/06 11:35:34;;;;;;;0.98;0.60;;;22.60;86.30;;;;;;5132512;27;20060;-65
2022/08/06 11:38:09;;;;;;;0.50;0.43;;;22.60;86.20;;;;;;5133970;27;20079;-65
2022/08/06 11:41:01;;;;;;;0.30;0.30;;;22.60;86.20;;;;;;5132718;27;20452;-65
2022/08/06 11:43:51;;;;;;;0.98;0.45;;;22.60;86.30;;;;;;5134061;27;20050;-64
2022/08/06 11:46:34;;;;;;;1.67;0.52;;;22.60;86.30;;;;;;5146730;27;20039;-64
2022/08/06 11:49:02;;;;;;;0.73;0.68;;;22.60;86.30;;;;;;5136127;27;20043;-64
2022/08/06 11:51:47;;;;;;;0.43;0.43;;;22.60;86.30;;;;;;5151171;27;20058;-64
2022/08/06 11:54:14;;;;;;;0.93;0.68;;;22.60;86.20;;;;;;5147497;27;20517;-65
2022/08/06 11:57:01;;;;;;;1.38;0.60;;;22.60;86.20;;;;;;5150835;27;20043;-65
2022/08/06 11:59:56;;;;;;;0.80;0.70;;;22.60;86.20;;;;;;5121784;27;20047;-63
2022/08/06 12:02:42;;;;;;;0.75;0.70;;;22.60;86.20;;;;;;5147917;27;20051;-65
2022/08/06 12:05:14;;;;;;;1.08;0.85;;;22.60;86.20;;;;;;5131168;27;20174;-64
2022/08/06 12:07:41;;;;;;;2.33;1.00;;;22.60;85.40;;;;;;5110638;27;20212;-65
2022/08/06 12:10:06;;;;;;;1.33;0.75;;;22.60;84.80;;;;;;5129207;27;20464;-65
2022/08/06 12:12:39;;;;;;;0.70;0.70;;;22.60;84.60;;;;;;5132364;27;20085;-65
2022/08/06 12:15:11;;;;;;;0.98;0.75;;;22.60;84.50;;;;;;5113607;27;20047;-65
2022/08/06 12:18:01;;;;;;;0.60;0.60;;;22.50;84.50;;;;;;5129452;27;20054;-65
2022/08/06 12:20:30;;;;;;;0.93;0.60;;;22.50;84.50;;;;;;5115075;27;20055;-65
2022/08/06 12:22:58;;;;;;;2.90;0.60;;;22.50;84.50;;;;;;5133142;27;20035;-65
2022/08/06 12:25:34;;;;;;;1.10;0.70;;;22.50;84.50;;;;;;5132262;27;20046;-65
2022/08/06 12:28:00;;;;;;;0.80;0.80;;;22.50;84.50;;;;;;5118851;27;20463;-64
2022/08/06 12:30:26;;;;;;;1.05;0.75;;;22.50;84.50;;;;;;5131554;27;20288;-64
2022/08/06 12:33:02;;;;;;;1.02;0.90;;;22.50;84.50;;;;;;5132205;27;20046;-64
2022/08/06 12:35:28;;;;;;;0.60;0.60;;;22.50;84.50;;;;;;5132231;27;20047;-65
2022/08/06 12:37:55;;;;;;;1.48;0.90;;;22.50;84.50;;;;;;5132708;27;20323;-65
2022/08/06 12:40:26;;;;;;;1.02;0.77;;;22.50;84.50;;;;;;5130606;27;20054;-65
2022/08/06 12:43:09;;;;;;;1.02;0.70;;;22.50;84.50;;;;;;5129245;27;20407;-65
2022/08/06 12:45:35;;;;;;;0.63;0.60;;;22.50;84.40;;;;;;5130690;27;20667;-65
2022/08/06 12:48:07;;;;;;;2.58;0.70;;;22.50;84.40;;;;;;5121727;27;20046;-65
2022/08/06 12:50:43;;;;;;;0.70;0.70;;;22.50;84.40;;;;;;5131923;27;20086;-65
2022/08/06 12:53:13;;;;;;;1.35;0.73;;;22.50;84.40;;;;;;5132555;27;20043;-64
2022/08/06 12:55:53;;;;;;;1.15;0.65;;;22.50;84.40;;;;;;5131743;27;20047;-65
2022/08/06 12:58:30;;;;;;;0.88;0.60;;;22.50;84.40;;;;;;5132261;27;20043;-64
2022/08/06 13:00:59;;;;;;;1.35;0.70;;;22.60;84.40;;;;;;5113065;27;20059;-65
2022/08/06 13:03:26;;;;;;;1.00;0.70;;;22.50;84.30;;;;;;5117069;27;20044;-65
2022/08/06 13:05:55;;;;;;;0.52;0.52;;;22.60;84.30;;;;;;5132164;27;20051;-64
2022/08/06 13:08:21;;;;;;;0.65;0.65;;;22.60;84.30;;;;;;5132076;27;20054;-64